Zhoucun, China
Current Conditions -  °F | °C
As of 7:00 PM on Friday 28 Nov 2014 (Local Time) from ZSJN Reporting Station
Haze Haze  
Wind Chill: 41°   Ceiling: 2000
Heat Index: 41°   Visibility: 3mi
Dew Point: 37°   Wind: 2mph
Humidity: 87%   Direction: NA
Pressure: 30.15"   Gusts: NA
Location:  36.8°N, 117.84°E
Report Text: ZSJN 281100Z VRB01MPS 5000 BR BKN020 05/03 Q1021 NOSIG
Loading
Personal Weather Stations






























Interactive Weather Map New forecast layout! Learn more

10-Day Weather Forecast

Advertisements
Track Severe Weather on mobile